Jamie Hanna — WDG4220 — position and weather

sailwx.info

Track history (hours):
 
Tides and Currents Weather Stations Pressure Air Temp Water Temp Dewpoint Dewpoint Depression Visibility Wind Speed Wind Dir Waves Ship Positions

Jamie Hanna

Owner: Goodwin, Joshua D, Hull, MA. More information available from US FCC via Universal Licensing System and Coast Guard Vessel Documentation Center.

Last reported at 2018-Jun-20 14:33 UTC. Time now 2018-Jun-22 09:11 UTC.
Position N 42°17' W 070°56'.

Type: Fishing. MMSI: 367534250.

Date/timePositionNaut miles runAvg speedWind from/ knotsBaromVisibWave heightAir tempDewpointWater temp
2018-Jun-20 14:33N 42°17' W 070°56'211.5
2018-Jun-20 14:21N 42°19' W 070°57'2 5.9
2018-Jun-20 14:00N 42°21' W 070°59'0 0.1
2018-Jun-20 13:29N 42°21' W 070°59'0 0.0
2018-Jun-20 13:00N 42°21' W 070°59'1 1.1
2018-Jun-20 12:29N 42°21' W 070°58'0 0.0
2018-Jun-20 11:59N 42°21' W 070°58'6 0.5
2018-Jun-19 22:54N 42°15' W 070°58'510.7
2018-Jun-19 22:28N 42°19' W 070°56'2 5.3
2018-Jun-19 22:01N 42°21' W 070°58'0 0.0
2018-Jun-19 21:30N 42°21' W 070°58'0 0.6
2018-Jun-19 21:00N 42°21' W 070°59'0 0.0
2018-Jun-19 20:30N 42°21' W 070°59'0 0.5
2018-Jun-19 20:00N 42°21' W 070°59'0 0.0
2018-Jun-19 19:30N 42°21' W 070°59'0 0.4
2018-Jun-19 19:00N 42°20' W 070°59'0 0.0
2018-Jun-19 18:30N 42°20' W 070°59'0 0.0
2018-Jun-19 17:59N 42°20' W 070°59'0 0.5
2018-Jun-19 17:29N 42°20' W 070°60'0 0.1
2018-Jun-19 17:00N 42°21' W 070°60'1 2.2
2018-Jun-19 16:30N 42°21' W 071°01'1 1.2
2018-Jun-19 15:59N 42°21' W 071°02'0 0.0
2018-Jun-19 15:29N 42°21' W 071°02'2 3.7
2018-Jun-19 15:00N 42°21' W 070°60'0 0.1
2018-Jun-19 14:31N 42°20' W 070°60'0 0.6
2018-Jun-19 14:00N 42°20' W 071°00'0 0.2
2018-Jun-19 13:30N 42°21' W 071°00'0 0.2
2018-Jun-19 13:00N 42°21' W 071°00'0 0.0
2018-Jun-19 12:28N 42°21' W 071°00'0 0.0
2018-Jun-19 12:00N 42°20' W 071°00'3 5.1
2018-Jun-19 11:30N 42°18' W 070°58'4 0.1
2018-Jun-17 17:59N 42°15' W 070°58'0 0.0
2018-Jun-17 16:11N 42°15' W 070°58'0 0.0
2018-Jun-17 15:53N 42°15' W 070°58'0 0.0
2018-Jun-15 19:32N 42°15' W 070°58'0 0.0
2018-Jun-15 18:37N 42°15' W 070°58'6 1.3
2018-Jun-15 14:06N 42°19' W 070°53'210.8
2018-Jun-15 13:55N 42°18' W 070°55'4 0.3
2018-Jun-14 21:01N 42°15' W 070°58'0 0.9
2018-Jun-14 20:59N 42°15' W 070°58'510.5
2018-Jun-14 20:29N 42°19' W 070°55'6 1.4
2018-Jun-14 16:07N 42°25' W 070°52'510.8
2018-Jun-14 15:42N 42°21' W 070°54'313.6
2018-Jun-14 15:30N 42°18' W 070°55'4 2.1
2018-Jun-14 13:31N 42°15' W 070°58'0 0.0
2018-Jun-14 13:25N 42°15' W 070°58'0 0.0
2018-Jun-13 18:48N 42°15' W 070°58'410.4
2018-Jun-13 18:26N 42°18' W 070°55'2 0.7
2018-Jun-13 15:32N 42°19' W 070°53'014.0
2018-Jun-13 15:30N 42°19' W 070°53'1 1.8
2018-Jun-13 14:58N 42°19' W 070°55'2 1.4
2018-Jun-13 13:41N 42°19' W 070°52'312.4
2018-Jun-13 13:29N 42°18' W 070°55'4 0.1
2018-Jun-11 16:14N 42°15' W 070°58'0 0.0
2018-Jun-11 14:24N 42°15' W 070°58'0 0.0
2018-Jun-11 14:00N 42°15' W 070°58'0 0.0
2018-Jun-11 13:30N 42°15' W 070°58'0 0.0
2018-Jun-11 12:33N 42°15' W 070°58'0 0.0
2018-Jun-11 12:06N 42°15' W 070°58'0 0.0
2018-Jun-11 12:00N 42°15' W 070°58'  
Track history (hours):
 
Tides and Currents Weather Stations Pressure Air Temp Water Temp Dewpoint Dewpoint Depression Visibility Wind Speed Wind Dir Waves Ship Positions

Jamie Hanna

Owner: Goodwin, Joshua D, Hull, MA. More information available from US FCC via Universal Licensing System and Coast Guard Vessel Documentation Center.

Last reported at 2018-Jun-20 14:33 UTC. Time now 2018-Jun-22 09:11 UTC.
Position N 42°17' W 070°56'.

Type: Fishing. MMSI: 367534250.

Date/timePositionNaut miles runAvg speedWind from/ knotsBaromVisibWave heightAir tempDewpointWater temp
2018-Jun-20 14:33N 42°17' W 070°56'211.5
2018-Jun-20 14:21N 42°19' W 070°57'2 5.9
2018-Jun-20 14:00N 42°21' W 070°59'0 0.1
2018-Jun-20 13:29N 42°21' W 070°59'0 0.0
2018-Jun-20 13:00N 42°21' W 070°59'1 1.1
2018-Jun-20 12:29N 42°21' W 070°58'0 0.0
2018-Jun-20 11:59N 42°21' W 070°58'6 0.5
2018-Jun-19 22:54N 42°15' W 070°58'510.7
2018-Jun-19 22:28N 42°19' W 070°56'2 5.3
2018-Jun-19 22:01N 42°21' W 070°58'0 0.0
2018-Jun-19 21:30N 42°21' W 070°58'0 0.6
2018-Jun-19 21:00N 42°21' W 070°59'0 0.0
2018-Jun-19 20:30N 42°21' W 070°59'0 0.5
2018-Jun-19 20:00N 42°21' W 070°59'0 0.0
2018-Jun-19 19:30N 42°21' W 070°59'0 0.4
2018-Jun-19 19:00N 42°20' W 070°59'0 0.0
2018-Jun-19 18:30N 42°20' W 070°59'0 0.0
2018-Jun-19 17:59N 42°20' W 070°59'0 0.5
2018-Jun-19 17:29N 42°20' W 070°60'0 0.1
2018-Jun-19 17:00N 42°21' W 070°60'1 2.2
2018-Jun-19 16:30N 42°21' W 071°01'1 1.2
2018-Jun-19 15:59N 42°21' W 071°02'0 0.0
2018-Jun-19 15:29N 42°21' W 071°02'2 3.7
2018-Jun-19 15:00N 42°21' W 070°60'0 0.1
2018-Jun-19 14:31N 42°20' W 070°60'0 0.6
2018-Jun-19 14:00N 42°20' W 071°00'0 0.2
2018-Jun-19 13:30N 42°21' W 071°00'0 0.2
2018-Jun-19 13:00N 42°21' W 071°00'0 0.0
2018-Jun-19 12:28N 42°21' W 071°00'0 0.0
2018-Jun-19 12:00N 42°20' W 071°00'3 5.1
2018-Jun-19 11:30N 42°18' W 070°58'4 0.1
2018-Jun-17 17:59N 42°15' W 070°58'0 0.0
2018-Jun-17 16:11N 42°15' W 070°58'0 0.0
2018-Jun-17 15:53N 42°15' W 070°58'0 0.0
2018-Jun-15 19:32N 42°15' W 070°58'0 0.0
2018-Jun-15 18:37N 42°15' W 070°58'6 1.3
2018-Jun-15 14:06N 42°19' W 070°53'210.8
2018-Jun-15 13:55N 42°18' W 070°55'4 0.3
2018-Jun-14 21:01N 42°15' W 070°58'0 0.9
2018-Jun-14 20:59N 42°15' W 070°58'510.5
2018-Jun-14 20:29N 42°19' W 070°55'6 1.4
2018-Jun-14 16:07N 42°25' W 070°52'510.8
2018-Jun-14 15:42N 42°21' W 070°54'313.6
2018-Jun-14 15:30N 42°18' W 070°55'4 2.1
2018-Jun-14 13:31N 42°15' W 070°58'0 0.0
2018-Jun-14 13:25N 42°15' W 070°58'0 0.0
2018-Jun-13 18:48N 42°15' W 070°58'410.4
2018-Jun-13 18:26N 42°18' W 070°55'2 0.7
2018-Jun-13 15:32N 42°19' W 070°53'014.0
2018-Jun-13 15:30N 42°19' W 070°53'1 1.8
2018-Jun-13 14:58N 42°19' W 070°55'2 1.4
2018-Jun-13 13:41N 42°19' W 070°52'312.4
2018-Jun-13 13:29N 42°18' W 070°55'4 0.1
2018-Jun-11 16:14N 42°15' W 070°58'0 0.0
2018-Jun-11 14:24N 42°15' W 070°58'0 0.0
2018-Jun-11 14:00N 42°15' W 070°58'0 0.0
2018-Jun-11 13:30N 42°15' W 070°58'0 0.0
2018-Jun-11 12:33N 42°15' W 070°58'0 0.0
2018-Jun-11 12:06N 42°15' W 070°58'0 0.0
2018-Jun-11 12:00N 42°15' W 070°58'  

Dump ship's entire track history